Time;durP1;ratioP1;P1;durP2;ratioP2;P2;SDS_P1;SDS_P2;PMS_P1;PMS_P2;Temp;Humidity;BMP_temperature;BMP_pressure;BME280_temperature;BME280_humidity;BME280_pressure;Samples;Min_cycle;Max_cycle;Signal;HPM_P1;HPM_P2
2022/06/13 00:02:38;;;;;;;4.93;2.58;;;21.20;64.80;;;;;;10418097;28;20033;-60
2022/06/13 00:07:39;;;;;;;2.97;1.80;;;21.20;64.80;;;;;;10419564;28;20116;-61
2022/06/13 00:12:41;;;;;;;3.38;2.30;;;21.20;64.80;;;;;;10417858;28;20041;-61
2022/06/13 00:17:43;;;;;;;4.18;2.47;;;21.20;64.80;;;;;;10417652;28;20033;-61
2022/06/13 00:22:44;;;;;;;5.03;2.30;;;21.20;64.80;;;;;;10417374;28;20038;-60
2022/06/13 00:27:44;;;;;;;3.33;2.05;;;21.20;64.80;;;;;;10418336;28;20107;-61
2022/06/13 00:32:45;;;;;;;4.40;2.35;;;21.20;64.80;;;;;;10416898;28;20049;-61
2022/06/13 00:37:46;;;;;;;3.42;2.45;;;21.20;65.30;;;;;;10416630;28;20386;-61
2022/06/13 00:42:46;;;;;;;3.65;2.53;;;21.20;64.70;;;;;;10416596;28;20497;-61
2022/06/13 00:47:52;;;;;;;3.33;2.55;;;21.10;64.60;;;;;;10417733;28;20087;-61
2022/06/13 00:52:57;;;;;;;4.07;2.10;;;21.20;64.70;;;;;;10416371;28;20037;-60
2022/06/13 00:58:01;;;;;;;3.72;2.53;;;21.10;64.60;;;;;;10416417;28;20044;-60
2022/06/13 01:03:04;;;;;;;3.80;2.15;;;21.10;64.60;;;;;;10416752;28;20557;-60
2022/06/13 01:08:08;;;;;;;3.78;2.05;;;21.10;64.60;;;;;;10415801;28;20029;-60
2022/06/13 01:13:11;;;;;;;4.10;2.25;;;21.10;64.60;;;;;;10416945;28;20033;-61
2022/06/13 01:18:14;;;;;;;3.17;2.05;;;21.10;64.60;;;;;;10415008;28;20065;-60
2022/06/13 01:23:39;;;;;;;4.80;2.08;;;21.10;64.60;;;;;;10416254;28;20033;-61
2022/06/13 01:29:33;;;;;;;3.45;2.40;;;21.10;64.60;;;;;;10415336;28;20030;-61
2022/06/13 01:35:21;;;;;;;4.30;2.15;;;21.10;64.60;;;;;;10416246;28;20151;-60
2022/06/13 01:40:41;;;;;;;3.97;2.03;;;21.10;64.60;;;;;;10424969;28;20053;-60
2022/06/13 01:45:58;;;;;;;3.13;2.17;;;21.10;65.30;;;;;;10408145;28;20030;-60
2022/06/13 01:51:01;;;;;;;4.70;2.33;;;21.10;64.60;;;;;;10413983;28;20090;-61
2022/06/13 01:56:11;;;;;;;2.60;2.00;;;21.00;64.60;;;;;;10392349;28;20667;-61
2022/06/13 02:01:25;;;;;;;3.00;2.30;;;21.10;64.60;;;;;;10413953;28;20029;-60
2022/06/13 02:06:31;;;;;;;2.75;1.85;;;21.00;64.60;;;;;;10413698;28;20036;-60
2022/06/13 02:11:40;;;;;;;3.15;1.98;;;21.00;64.60;;;;;;10413698;28;20033;-61
2022/06/13 02:17:03;;;;;;;3.70;2.15;;;21.00;64.60;;;;;;10411899;28;20038;-61
2022/06/13 02:22:19;;;;;;;3.72;1.95;;;21.00;64.60;;;;;;10430106;28;20370;-60
2022/06/13 02:27:24;;;;;;;3.53;2.03;;;21.00;64.70;;;;;;10412944;28;20061;-61
2022/06/13 02:32:43;;;;;;;3.10;2.00;;;21.00;64.70;;;;;;10413257;28;20049;-60
2022/06/13 02:38:03;;;;;;;3.30;2.50;;;21.00;64.70;;;;;;10428796;28;20405;-61
2022/06/13 02:43:25;;;;;;;3.88;2.28;;;21.00;64.70;;;;;;10394756;28;20076;-60
2022/06/13 02:48:39;;;;;;;3.33;1.85;;;21.00;64.70;;;;;;10418850;28;20029;-60
2022/06/13 02:54:10;;;;;;;3.08;1.95;;;21.00;64.70;;;;;;10415131;28;20040;-60
2022/06/13 02:59:32;;;;;;;3.35;1.90;;;21.00;64.70;;;;;;10413465;28;20037;-61
2022/06/13 03:04:42;;;;;;;2.60;1.85;;;21.00;64.70;;;;;;10411413;28;20029;-60
2022/06/13 03:09:51;;;;;;;3.33;1.98;;;21.00;64.70;;;;;;10411907;28;20040;-60
2022/06/13 03:15:23;;;;;;;3.78;2.10;;;20.90;64.60;;;;;;10412235;28;20037;-60
2022/06/13 03:20:41;;;;;;;3.10;2.03;;;20.90;64.60;;;;;;10411681;28;20033;-60
2022/06/13 03:25:55;;;;;;;3.55;2.08;;;20.90;65.30;;;;;;10411818;28;20406;-61
2022/06/13 03:31:08;;;;;;;3.05;1.90;;;20.90;64.70;;;;;;10426906;28;20033;-60
2022/06/13 03:36:33;;;;;;;3.17;1.92;;;20.90;64.60;;;;;;10394510;28;20498;-60
2022/06/13 03:41:55;;;;;;;2.75;2.05;;;20.90;64.70;;;;;;10411002;28;20099;-61
2022/06/13 03:47:01;;;;;;;4.72;2.58;;;20.90;64.70;;;;;;10412495;28;20355;-60
2022/06/13 03:52:05;;;;;;;2.65;2.10;;;20.90;64.70;;;;;;10410018;28;20375;-60
2022/06/13 03:57:38;;;;;;;3.85;2.20;;;20.90;64.70;;;;;;10411089;28;20029;-61
2022/06/13 04:02:42;;;;;;;3.65;1.88;;;20.90;64.70;;;;;;10411005;28;20057;-60
2022/06/13 04:07:43;;;;;;;3.75;2.28;;;20.90;64.70;;;;;;10394382;28;20029;-60
2022/06/13 04:13:14;;;;;;;3.10;1.98;;;20.90;64.70;;;;;;10396093;28;20029;-60
2022/06/13 04:18:23;;;;;;;2.55;1.80;;;20.90;64.80;;;;;;10419494;28;20175;-61
2022/06/13 04:24:05;;;;;;;3.10;2.13;;;20.90;64.80;;;;;;10418844;28;20449;-60
2022/06/13 04:29:25;;;;;;;3.42;2.30;;;20.90;64.80;;;;;;10409942;28;20041;-60
2022/06/13 04:34:34;;;;;;;2.83;2.13;;;20.90;64.90;;;;;;10416855;28;20111;-60
2022/06/13 04:39:36;;;;;;;4.10;2.50;;;20.80;64.90;;;;;;10417071;28;20408;-60
2022/06/13 04:44:40;;;;;;;3.25;2.05;;;20.80;64.90;;;;;;10416755;28;20037;-60
2022/06/13 04:49:55;;;;;;;4.47;2.38;;;20.80;64.90;;;;;;10427114;28;20444;-62
2022/06/13 04:55:12;;;;;;;3.58;1.98;;;20.90;65.00;;;;;;10412314;28;20029;-59
2022/06/13 05:00:14;;;;;;;5.35;1.92;;;20.80;65.00;;;;;;10415067;28;20079;-60
2022/06/13 05:05:40;;;;;;;7.45;2.45;;;20.90;65.40;;;;;;10412323;28;20036;-59
2022/06/13 05:10:43;;;;;;;7.97;2.45;;;20.90;65.60;;;;;;10415006;28;20048;-59
2022/06/13 05:15:53;;;;;;;6.57;2.22;;;21.00;66.50;;;;;;10403206;28;20427;-59
2022/06/13 05:21:22;;;;;;;7.85;2.33;;;21.00;66.50;;;;;;10416064;28;20127;-61
2022/06/13 05:26:28;;;;;;;14.80;3.47;;;21.00;66.60;;;;;;10415667;28;20025;-58
2022/06/13 05:31:30;;;;;;;8.35;2.95;;;21.00;66.80;;;;;;10414081;28;20037;-63
2022/06/13 05:36:30;;;;;;;5.78;2.92;;;21.00;66.60;;;;;;10413199;28;20103;-61
2022/06/13 05:41:31;;;;;;;9.02;2.97;;;21.00;66.80;;;;;;10409197;28;20092;-62
2022/06/13 05:46:37;;;;;;;9.63;2.95;;;20.90;66.30;;;;;;10424225;28;20028;-59
2022/06/13 05:51:38;;;;;;;10.45;3.63;;;20.90;66.50;;;;;;10424585;28;20030;-60
2022/06/13 05:56:40;;;;;;;7.80;2.72;;;20.90;66.40;;;;;;10413122;28;20045;-59
2022/06/13 06:01:41;;;;;;;11.00;3.38;;;20.90;66.60;;;;;;10412468;28;20034;-60
2022/06/13 06:06:41;;;;;;;21.98;3.85;;;20.90;66.90;;;;;;10409631;28;20551;-60
2022/06/13 06:11:42;;;;;;;12.40;3.33;;;20.90;66.80;;;;;;10407979;28;20105;-61
2022/06/13 06:16:43;;;;;;;7.50;2.90;;;20.90;66.60;;;;;;10409682;28;20040;-60
2022/06/13 06:21:44;;;;;;;9.80;3.13;;;21.00;66.60;;;;;;10408785;28;20029;-60
2022/06/13 06:26:44;;;;;;;7.28;2.70;;;21.00;66.50;;;;;;10411037;28;20112;-60
2022/06/13 06:31:45;;;;;;;13.45;3.15;;;20.90;66.40;;;;;;10426100;28;20460;-60
2022/06/13 06:36:46;;;;;;;7.93;3.20;;;20.90;66.50;;;;;;10411216;28;20060;-61
2022/06/13 06:41:47;;;;;;;7.68;2.72;;;20.90;66.50;;;;;;10405169;28;20145;-60
2022/06/13 06:46:48;;;;;;;6.95;2.75;;;20.90;66.50;;;;;;10406325;28;20148;-60
2022/06/13 06:51:49;;;;;;;6.07;2.85;;;20.90;66.50;;;;;;10416027;28;20037;-61
2022/06/13 07:02:10;;;;;;;8.13;3.00;;;20.90;66.50;;;;;;10401482;28;20374;-60
2022/06/13 07:07:11;;;;;;;7.25;2.85;;;20.90;66.50;;;;;;10412017;28;20032;-61
2022/06/13 07:12:12;;;;;;;7.40;2.90;;;20.90;66.40;;;;;;10409352;28;20027;-60
2022/06/13 07:17:14;;;;;;;6.78;2.47;;;20.90;66.50;;;;;;10411424;28;20431;-61
2022/06/13 07:22:19;;;;;;;4.88;2.30;;;20.90;66.50;;;;;;10411359;28;20069;-60
2022/06/13 07:27:20;;;;;;;4.50;2.53;;;20.90;66.50;;;;;;10410466;28;20502;-59
2022/06/13 07:32:25;;;;;;;4.60;2.85;;;20.90;66.60;;;;;;10412347;28;20136;-61
2022/06/13 07:42:51;;;;;;;5.07;2.60;;;20.90;66.60;;;;;;10397928;28;20468;-59
2022/06/13 07:47:53;;;;;;;6.78;3.00;;;20.90;66.60;;;;;;10415589;28;20394;-59
2022/06/13 07:52:54;;;;;;;11.80;3.17;;;21.00;66.50;;;;;;10426964;28;20036;-58
2022/06/13 07:57:55;;;;;;;6.32;3.33;;;21.00;66.60;;;;;;10418304;28;20055;-59
2022/06/13 08:02:57;;;;;;;6.90;2.38;;;21.10;66.70;;;;;;10418432;28;20033;-58
2022/06/13 08:07:59;;;;;;;6.07;2.67;;;21.10;66.70;;;;;;10416748;28;20029;-58
2022/06/13 08:12:59;;;;;;;6.47;2.58;;;21.00;66.60;;;;;;10419188;28;20116;-59
2022/06/13 08:18:00;;;;;;;6.50;2.53;;;21.00;66.70;;;;;;10434326;28;20566;-58
2022/06/13 08:23:03;;;;;;;6.22;2.25;;;21.00;66.80;;;;;;10418658;28;20083;-59
2022/06/13 08:28:05;;;;;;;7.22;2.78;;;21.00;66.80;;;;;;10417080;28;20033;-58
2022/06/13 08:33:06;;;;;;;9.68;2.75;;;21.00;66.60;;;;;;10417419;28;20056;-59
2022/06/13 08:38:07;;;;;;;5.45;2.60;;;21.10;66.60;;;;;;10416224;28;20397;-59
2022/06/13 08:43:36;;;;;;;7.40;3.05;;;21.10;66.60;;;;;;10398070;28;20036;-60
2022/06/13 08:48:47;;;;;;;8.47;2.17;;;21.10;66.80;;;;;;10416093;28;20104;-59
2022/06/13 08:54:01;;;;;;;6.75;2.25;;;21.10;66.70;;;;;;10415980;28;20378;-59
2022/06/13 08:59:24;;;;;;;5.75;2.03;;;21.00;66.70;;;;;;10415469;28;20120;-60
2022/06/13 09:04:44;;;;;;;6.63;2.30;;;21.10;66.80;;;;;;10416513;28;20037;-59
2022/06/13 09:10:06;;;;;;;5.97;2.95;;;21.00;66.90;;;;;;10415465;28;20029;-59
2022/06/13 09:15:18;;;;;;;5.68;2.13;;;21.10;66.90;;;;;;10416211;28;20055;-60
2022/06/13 09:21:10;;;;;;;7.90;2.70;;;21.10;66.90;;;;;;10414549;28;20030;-59
2022/06/13 09:26:23;;;;;;;8.82;2.47;;;21.10;66.90;;;;;;10415510;28;20033;-60
2022/06/13 09:31:40;;;;;;;13.48;2.72;;;21.10;66.90;;;;;;10414839;28;20044;-58
2022/06/13 09:36:59;;;;;;;10.48;2.75;;;21.10;67.00;;;;;;10414217;28;20053;-59
2022/06/13 09:42:16;;;;;;;9.23;2.67;;;21.10;66.90;;;;;;10414419;28;20143;-59
2022/06/13 09:47:40;;;;;;;8.45;2.80;;;21.20;66.70;;;;;;10414340;28;20053;-59
2022/06/13 09:52:52;;;;;;;12.35;2.78;;;21.20;66.80;;;;;;10405251;28;20120;-60
2022/06/13 09:58:23;;;;;;;12.73;3.30;;;21.20;66.90;;;;;;10415038;28;20061;-58
2022/06/13 10:04:07;;;;;;;9.65;3.03;;;21.20;66.50;;;;;;10413813;28;20030;-57
2022/06/13 10:09:41;;;;;;;8.50;2.47;;;21.20;66.60;;;;;;10410456;28;20432;-58
2022/06/13 10:15:25;;;;;;;10.27;3.55;;;21.20;66.50;;;;;;10410828;28;20704;-59
2022/06/13 10:20:56;;;;;;;8.20;2.65;;;21.20;66.40;;;;;;10404706;28;20049;-59
2022/06/13 10:26:23;;;;;;;5.93;2.25;;;21.20;66.30;;;;;;10412693;28;20414;-59
2022/06/13 10:32:08;;;;;;;6.82;2.30;;;21.20;66.20;;;;;;10413718;28;20033;-59
2022/06/13 10:37:38;;;;;;;6.95;2.40;;;21.20;66.40;;;;;;10413095;28;20045;-58
2022/06/13 10:42:38;;;;;;;5.82;2.35;;;21.20;66.60;;;;;;10398880;28;20434;-58
2022/06/13 10:48:19;;;;;;;6.45;2.53;;;21.20;66.40;;;;;;10413035;28;20030;-59
2022/06/13 10:53:34;;;;;;;;;;;21.20;66.20;;;;;;10407016;28;20033;-58
2022/06/13 10:59:01;;;;;;;8.10;2.30;;;21.20;66.10;;;;;;10411187;28;19920;-58
2022/06/13 11:04:19;;;;;;;4.28;1.67;;;21.20;66.20;;;;;;10400937;28;20506;-58
2022/06/13 11:09:54;;;;;;;6.68;2.22;;;21.10;66.20;;;;;;10411403;28;20095;-58
2022/06/13 11:25:43;;;;;;;5.70;1.63;;;21.20;65.70;;;;;;10419289;28;20029;-58
2022/06/13 11:30:49;;;;;;;4.88;1.50;;;21.20;65.90;;;;;;10419822;28;20025;-59
2022/06/13 11:36:26;;;;;;;6.25;1.90;;;21.20;65.70;;;;;;10419466;28;20053;-58
2022/06/13 11:41:53;;;;;;;5.70;1.65;;;21.20;65.70;;;;;;10420104;28;20036;-58
2022/06/13 11:46:53;;;;;;;5.03;1.58;;;21.20;65.80;;;;;;10416843;28;20128;-59
2022/06/13 11:53:35;;;;;;;5.45;1.70;;;21.20;65.40;;;;;;10429591;28;20442;-57
2022/06/13 11:57:42;;;;;;;5.72;1.85;;;21.30;65.20;;;;;;10419925;28;20103;-58
2022/06/13 12:02:51;;;;;;;3.67;1.58;;;21.30;65.00;;;;;;10419540;28;20084;-59
2022/06/13 12:07:54;;;;;;;4.25;1.77;;;21.20;65.30;;;;;;10419359;28;20156;-58
2022/06/13 12:12:55;;;;;;;4.35;1.80;;;21.30;65.10;;;;;;10417862;28;20120;-59
2022/06/13 12:18:06;;;;;;;5.82;1.52;;;21.30;65.10;;;;;;10419115;28;20100;-59
2022/06/13 12:23:09;;;;;;;4.18;1.77;;;21.40;64.90;;;;;;10417540;28;20733;-59
2022/06/13 12:28:17;;;;;;;6.18;2.05;;;21.40;64.90;;;;;;10417600;28;20021;-58
2022/06/13 12:33:58;;;;;;;3.97;1.50;;;21.40;64.90;;;;;;10417079;28;20049;-59
2022/06/13 12:39:21;;;;;;;6.43;2.05;;;21.40;64.80;;;;;;10401959;28;20504;-60
2022/06/13 12:44:36;;;;;;;9.98;2.33;;;21.40;64.60;;;;;;10408697;28;20493;-58
2022/06/13 12:49:45;;;;;;;7.80;2.42;;;21.40;64.10;;;;;;10428698;28;20108;-57
2022/06/13 12:55:03;;;;;;;4.75;1.80;;;21.40;64.00;;;;;;10432907;28;20036;-58
2022/06/13 13:00:19;;;;;;;5.20;1.80;;;21.40;64.20;;;;;;10417895;28;20140;-58
2022/06/13 13:05:42;;;;;;;5.03;1.40;;;21.30;63.60;;;;;;10433054;28;20021;-59
2022/06/13 13:11:13;;;;;;;8.68;1.83;;;21.30;63.50;;;;;;10417050;28;20036;-59
2022/06/13 13:16:56;;;;;;;6.47;1.52;;;21.30;63.10;;;;;;10416281;28;20029;-59
2022/06/13 13:22:14;;;;;;;5.53;1.90;;;21.30;63.20;;;;;;10415644;28;20037;-59
2022/06/13 13:27:19;;;;;;;4.90;1.55;;;21.30;63.10;;;;;;10415426;28;20025;-59
2022/06/13 13:32:42;;;;;;;5.75;1.60;;;21.30;63.10;;;;;;10415225;28;20627;-59
2022/06/13 13:37:52;;;;;;;5.15;1.30;;;21.30;62.80;;;;;;10416434;28;20048;-58
2022/06/13 13:43:27;;;;;;;4.15;2.13;;;21.30;63.10;;;;;;10415743;28;20025;-58
2022/06/13 13:49:17;;;;;;;8.77;2.03;;;21.20;63.20;;;;;;10422043;28;20029;-58
2022/06/13 13:54:23;;;;;;;8.57;1.93;;;21.30;62.90;;;;;;10404751;28;20375;-59
2022/06/13 13:59:30;;;;;;;6.10;2.13;;;21.20;62.90;;;;;;10413989;28;20284;-57
2022/06/13 14:05:07;;;;;;;4.82;1.65;;;21.20;63.00;;;;;;10410016;28;20029;-59
2022/06/13 14:10:12;;;;;;;5.65;1.50;;;21.20;62.80;;;;;;10412338;28;20028;-58
2022/06/13 14:15:18;;;;;;;5.97;1.70;;;21.20;63.10;;;;;;10412976;28;20056;-60
2022/06/13 14:20:28;;;;;;;4.93;1.83;;;21.20;62.70;;;;;;10412731;28;20034;-59
2022/06/13 14:25:33;;;;;;;4.60;1.55;;;21.20;62.70;;;;;;10412822;28;20422;-59
2022/06/13 14:31:05;;;;;;;11.65;2.47;;;21.20;62.70;;;;;;10413454;28;20029;-58
2022/06/13 14:36:09;;;;;;;5.57;1.65;;;21.20;62.80;;;;;;10411756;28;20529;-58
2022/06/13 14:41:38;;;;;;;3.90;1.60;;;21.10;62.50;;;;;;10410042;28;20068;-59
2022/06/13 14:47:19;;;;;;;5.93;1.93;;;21.20;62.60;;;;;;10399325;28;20433;-57
2022/06/13 14:52:28;;;;;;;5.10;1.50;;;21.20;62.70;;;;;;10423498;28;20468;-57
2022/06/13 14:57:29;;;;;;;5.57;1.50;;;21.20;62.70;;;;;;10412030;28;20049;-56
2022/06/13 15:02:34;;;;;;;8.45;1.92;;;21.20;62.60;;;;;;10413027;28;20060;-58
2022/06/13 15:08:10;;;;;;;9.60;1.80;;;21.30;62.80;;;;;;10411957;28;20104;-58
2022/06/13 15:13:14;;;;;;;7.30;1.52;;;21.40;63.10;;;;;;10411764;28;20026;-58
2022/06/13 15:18:21;;;;;;;6.55;2.35;;;21.40;62.30;;;;;;10411323;28;20065;-57
2022/06/13 15:23:41;;;;;;;7.18;2.95;;;21.60;62.20;;;;;;10408658;28;20104;-58
2022/06/13 15:29:03;;;;;;;11.70;2.22;;;21.70;61.70;;;;;;10410334;28;20136;-58
2022/06/13 15:34:07;;;;;;;8.73;2.30;;;21.90;61.00;;;;;;10411793;28;20045;-59
2022/06/13 15:39:12;;;;;;;12.15;4.35;;;21.90;61.30;;;;;;10401673;28;20079;-58
2022/06/13 15:44:17;;;;;;;14.70;4.72;;;22.10;63.70;;;;;;10409126;28;20065;-58
2022/06/13 15:49:22;;;;;;;12.27;5.00;;;22.00;64.70;;;;;;10402424;28;20026;-58
2022/06/13 15:54:23;;;;;;;10.27;4.20;;;22.20;66.20;;;;;;10396116;28;20040;-58
2022/06/13 15:59:24;;;;;;;13.27;5.40;;;22.30;66.20;;;;;;10408233;28;20545;-58
2022/06/13 16:04:28;;;;;;;9.55;4.28;;;22.30;67.60;;;;;;10403481;28;20033;-61
2022/06/13 16:09:32;;;;;;;10.10;5.22;;;22.30;67.40;;;;;;10414555;28;20497;-58
2022/06/13 16:14:36;;;;;;;14.45;5.75;;;22.40;67.50;;;;;;10418027;28;20045;-58
2022/06/13 16:19:40;;;;;;;14.55;5.00;;;22.60;66.50;;;;;;10418325;28;20057;-58
2022/06/13 16:24:46;;;;;;;13.88;5.63;;;22.50;66.90;;;;;;10417172;28;20057;-58
2022/06/13 16:29:58;;;;;;;11.93;5.43;;;22.20;66.80;;;;;;10417125;28;20465;-57
2022/06/13 16:35:00;;;;;;;12.82;5.93;;;22.10;66.90;;;;;;10417126;28;20450;-56
2022/06/13 16:40:00;;;;;;;13.27;6.13;;;22.10;66.90;;;;;;10417627;28;20462;-57
2022/06/13 16:45:04;;;;;;;12.65;5.72;;;22.20;67.00;;;;;;10409243;28;20029;-58
2022/06/13 16:50:04;;;;;;;9.82;5.55;;;22.20;66.90;;;;;;10428722;28;20084;-57
2022/06/13 16:55:19;;;;;;;12.02;5.50;;;22.00;66.70;;;;;;10417094;28;20370;-58
2022/06/13 17:00:20;;;;;;;13.18;6.22;;;21.90;66.50;;;;;;10415911;28;20035;-57
2022/06/13 17:05:36;;;;;;;12.40;5.68;;;22.00;66.60;;;;;;10415995;28;20025;-58
2022/06/13 17:11:04;;;;;;;10.85;5.28;;;22.00;66.30;;;;;;10414679;28;20099;-58
2022/06/13 17:16:09;;;;;;;12.35;5.50;;;21.90;65.40;;;;;;10415552;28;20041;-57
2022/06/13 17:21:14;;;;;;;10.82;5.28;;;21.80;65.50;;;;;;10394201;28;20095;-57
2022/06/13 17:36:57;;;;;;;13.18;6.07;;;21.80;65.30;;;;;;10411754;28;20164;-59
2022/06/13 17:41:58;;;;;;;10.00;4.78;;;21.70;65.10;;;;;;10401691;28;20038;-59
2022/06/13 17:46:59;;;;;;;10.40;4.47;;;21.70;65.10;;;;;;10410343;28;20033;-59
2022/06/13 17:52:00;;;;;;;8.15;3.25;;;21.60;65.00;;;;;;10421633;28;20091;-59
2022/06/13 17:57:06;;;;;;;7.38;3.58;;;21.60;63.90;;;;;;10412174;28;20061;-59
2022/06/13 18:02:10;;;;;;;9.18;3.15;;;21.60;63.50;;;;;;10415472;28;20037;-57
2022/06/13 18:07:14;;;;;;;11.18;3.10;;;21.60;62.60;;;;;;10413861;28;20045;-57
2022/06/13 18:12:15;;;;;;;6.80;3.25;;;21.60;63.10;;;;;;10413657;28;20021;-57
2022/06/13 18:17:20;;;;;;;3.88;2.10;;;21.50;61.30;;;;;;10413564;28;20055;-57
2022/06/13 18:22:21;;;;;;;7.72;2.47;;;21.50;60.40;;;;;;10412611;28;20029;-58
2022/06/13 18:27:22;;;;;;;9.70;2.85;;;21.50;59.80;;;;;;10412779;28;20034;-58
2022/06/13 18:32:23;;;;;;;5.88;2.50;;;21.50;56.90;;;;;;10412140;28;20458;-57
2022/06/13 18:37:24;;;;;;;6.50;2.38;;;21.50;54.50;;;;;;10412137;28;20037;-59
2022/06/13 18:42:28;;;;;;;9.43;3.05;;;21.40;56.00;;;;;;10398897;28;20136;-58
2022/06/13 18:47:28;;;;;;;7.32;2.83;;;21.40;54.60;;;;;;10412494;28;20056;-58
2022/06/13 18:52:29;;;;;;;5.40;2.40;;;21.40;55.60;;;;;;10422554;28;20396;-58
2022/06/13 18:57:30;;;;;;;6.85;2.47;;;21.40;56.30;;;;;;10412482;28;20127;-59
2022/06/13 19:02:35;;;;;;;3.47;2.17;;;21.40;57.00;;;;;;10413250;28;20112;-58
2022/06/13 19:07:36;;;;;;;3.35;1.67;;;21.40;59.00;;;;;;10411831;28;20099;-59
2022/06/13 19:12:37;;;;;;;7.60;2.55;;;21.40;57.80;;;;;;10411872;28;20080;-58
2022/06/13 19:17:39;;;;;;;7.53;2.83;;;21.40;58.80;;;;;;10413127;28;20035;-59
2022/06/13 19:22:40;;;;;;;3.78;2.00;;;21.40;58.90;;;;;;10413022;28;20355;-59
2022/06/13 19:27:44;;;;;;;7.18;2.53;;;21.40;59.20;;;;;;10411565;28;20294;-57
2022/06/13 19:32:50;;;;;;;8.88;3.40;;;21.30;59.70;;;;;;10410159;28;20034;-57
2022/06/13 19:37:53;;;;;;;8.00;4.15;;;21.40;60.20;;;;;;10409975;28;20029;-58
2022/06/13 19:42:56;;;;;;;9.45;5.57;;;21.40;60.70;;;;;;10412583;28;20025;-57
2022/06/13 19:47:57;;;;;;;7.97;5.93;;;21.40;60.70;;;;;;10419110;28;20021;-58
2022/06/13 19:53:06;;;;;;;8.93;4.57;;;21.50;60.30;;;;;;10419094;28;20048;-58
2022/06/13 19:58:08;;;;;;;9.00;5.35;;;21.50;60.30;;;;;;10418456;28;20025;-58
2022/06/13 20:03:10;;;;;;;5.75;4.80;;;21.40;60.20;;;;;;10418423;28;20029;-58
2022/06/13 20:08:26;;;;;;;5.95;4.05;;;21.40;60.80;;;;;;10418581;28;20022;-58
2022/06/13 20:13:34;;;;;;;4.18;3.22;;;21.40;61.20;;;;;;10406130;28;20386;-58
2022/06/13 20:18:44;;;;;;;4.35;3.83;;;21.40;60.60;;;;;;10410648;28;20037;-58
2022/06/13 20:23:49;;;;;;;4.90;3.95;;;21.40;60.80;;;;;;10415380;28;20109;-58
2022/06/13 20:28:50;;;;;;;6.75;3.90;;;21.40;60.90;;;;;;10418510;28;20021;-58
2022/06/13 20:33:56;;;;;;;5.03;3.80;;;21.30;60.70;;;;;;10418966;28;20076;-58
2022/06/13 20:39:06;;;;;;;4.40;3.30;;;21.30;60.90;;;;;;10417464;28;20084;-59
2022/06/13 20:44:11;;;;;;;4.53;4.00;;;21.30;60.90;;;;;;10412139;28;20101;-59
2022/06/13 20:49:25;;;;;;;4.43;3.40;;;21.30;60.80;;;;;;10424737;28;20033;-58
2022/06/13 20:54:31;;;;;;;6.43;3.70;;;21.30;60.70;;;;;;10407897;28;20049;-58
2022/06/13 20:59:33;;;;;;;4.80;3.13;;;21.30;60.50;;;;;;10415543;28;20474;-59
2022/06/13 21:04:36;;;;;;;6.15;3.53;;;21.30;60.60;;;;;;10415707;28;20117;-58
2022/06/13 21:14:58;;;;;;;5.28;3.10;;;21.30;60.30;;;;;;10416807;28;20037;-58
2022/06/13 21:19:59;;;;;;;4.03;3.08;;;21.20;60.20;;;;;;10415794;28;20033;-58
2022/06/13 21:25:02;;;;;;;3.30;2.60;;;21.20;60.30;;;;;;10416882;28;20061;-58
2022/06/13 21:30:05;;;;;;;5.47;2.70;;;21.20;60.30;;;;;;10417040;28;20365;-59
2022/06/13 21:35:06;;;;;;;4.57;2.95;;;21.20;60.20;;;;;;10415254;28;20061;-58
2022/06/13 21:40:08;;;;;;;5.03;2.83;;;21.20;60.20;;;;;;10416534;28;20033;-58
2022/06/13 21:45:09;;;;;;;4.30;2.28;;;21.20;60.10;;;;;;10414878;28;20524;-58
2022/06/13 21:50:15;;;;;;;4.75;3.42;;;21.20;60.10;;;;;;10414718;28;20040;-58
2022/06/13 21:55:19;;;;;;;3.70;2.72;;;21.20;60.10;;;;;;10414683;28;20044;-59
2022/06/13 22:00:25;;;;;;;3.28;2.45;;;21.20;60.00;;;;;;10415443;28;20034;-58
2022/06/13 22:05:26;;;;;;;3.53;2.60;;;21.20;60.00;;;;;;10413812;28;20037;-58
2022/06/13 22:10:27;;;;;;;3.05;1.95;;;21.10;59.90;;;;;;10429235;28;20394;-58
2022/06/13 22:15:28;;;;;;;3.55;2.42;;;21.10;60.00;;;;;;10430305;28;20112;-59
2022/06/13 22:20:29;;;;;;;2.78;2.13;;;21.10;59.80;;;;;;10413501;28;20485;-58
2022/06/13 22:25:29;;;;;;;3.10;2.17;;;21.10;59.90;;;;;;10414952;28;20017;-59
2022/06/13 22:30:34;;;;;;;3.85;2.17;;;21.10;59.90;;;;;;10413994;28;20033;-58
2022/06/13 22:35:35;;;;;;;5.72;2.38;;;21.10;59.80;;;;;;10412747;28;20068;-58
2022/06/13 22:40:37;;;;;;;3.28;2.10;;;21.10;59.70;;;;;;10413906;28;20048;-58
2022/06/13 22:45:43;;;;;;;4.90;2.10;;;21.10;59.80;;;;;;10400968;28;20029;-58
2022/06/13 22:50:44;;;;;;;3.25;1.75;;;21.10;59.80;;;;;;10411326;28;20076;-58
2022/06/13 22:55:45;;;;;;;4.72;2.05;;;21.10;59.80;;;;;;10412429;28;20025;-58
2022/06/13 23:00:46;;;;;;;3.17;1.70;;;21.00;59.70;;;;;;10413662;28;20037;-58
2022/06/13 23:05:47;;;;;;;3.53;1.95;;;21.00;59.80;;;;;;10413360;28;20351;-58
2022/06/13 23:10:48;;;;;;;3.85;2.13;;;21.00;59.70;;;;;;10421474;28;20037;-58
2022/06/13 23:15:49;;;;;;;2.72;1.88;;;21.00;59.80;;;;;;10413022;28;20033;-58
2022/06/13 23:20:49;;;;;;;3.50;1.88;;;21.00;59.80;;;;;;10411153;28;20492;-58
2022/06/13 23:25:50;;;;;;;6.93;2.72;;;21.00;59.80;;;;;;10412769;28;20534;-58
2022/06/13 23:30:51;;;;;;;3.75;1.83;;;21.00;59.80;;;;;;10412802;28;20040;-58
2022/06/13 23:35:51;;;;;;;2.63;1.60;;;21.00;59.80;;;;;;10412263;28;20053;-59
2022/06/13 23:40:52;;;;;;;2.92;2.10;;;21.00;59.70;;;;;;10412013;28;20581;-58
2022/06/13 23:45:53;;;;;;;3.38;1.90;;;21.00;59.70;;;;;;10400045;28;20064;-58
2022/06/13 23:50:55;;;;;;;4.13;1.65;;;20.90;59.70;;;;;;10422661;28;20060;-58
2022/06/13 23:55:55;;;;;;;3.00;1.90;;;20.90;59.70;;;;;;10412298;28;20615;-58
